Keswick, California
Current Conditions -  °F | °C
As of 5:53 AM on Thursday 23 Oct 2014 (Local Time) from KRDD Reporting Station
Overcast Overcast  
Wind Chill: 56°   Ceiling: 11000
Heat Index: 56°   Visibility: 10mi
Dew Point: 55°   Wind: 8mph
Humidity: 97%   Direction: 290°WNW
Pressure: 30.02"   Gusts: NA
Location:  40.5977°N, 122.467°W
Report Text: KRDD 231253Z AUTO 29007KT 10SM OVC110 13/13 A3002 RMK AO2 RAE41 SLP164 P0001 T01330128
Loading
Personal Weather Stations






























Interactive Weather Map
Tropical Storm Tracking
New forecast layout! Learn more

10-Day Weather Forecast

Advertisements
Track Severe Weather on mobile